Thursday, January 17, 2019, 6:06 AM EST
Back to Local

KPWM, Portland International Jetport

Location: Portland, ME, United States Lat: 43.65
Local Time: 6:06 AM EST (11:06 GMT) Lon: -70.3
Time Zone: US/Eastern Elev: 75 ft

Show me the last for .
Show Decoded

2019-01-17 05:51 METAR KPWM 171051Z 35005KT 10SM CLR M12/M18 A3031 RMK AO2 SLP265 T11171178 =
2019-01-17 04:51 METAR KPWM 170951Z 32006KT 10SM CLR M11/M18 A3029 RMK AO2 SLP259 T11061178 =
2019-01-17 03:51 METAR KPWM 170851Z AUTO 30005KT 10SM CLR M10/M18 A3027 RMK AO2 SLP251 T11001178
                 51038 =
2019-01-17 02:51 METAR KPWM 170751Z AUTO 32010KT 10SM CLR M09/M18 A3024 RMK AO2 SLP241 T10941178
                 =
2019-01-17 01:51 METAR KPWM 170651Z AUTO 31011KT 10SM CLR M08/M18 A3021 RMK AO2 SLP231 T10831178
                 =
2019-01-17 00:51 METAR KPWM 170551Z AUTO 32008KT 10SM CLR M07/M15 A3016 RMK AO2 PK WND 31027/0520
                 SLP214 T10671150 10011 21067 51044 =
2019-01-16 23:51 METAR KPWM 170451Z 32012G20KT 10SM CLR M05/M15 A3012 RMK AO2 PK WND 32029/0430
                 SLP202 LAST T10501150 400281056 =
2019-01-16 22:51 METAR KPWM 170351Z 32014KT 10SM CLR M03/M17 A3008 RMK AO2 SLP188 T10281167 =
2019-01-16 21:51 METAR KPWM 170251Z 32011G23KT 10SM CLR M01/M09 A3003 RMK AO2 SLP170 T10111094
                 53039 =
2019-01-16 20:51 METAR KPWM 170151Z 32011KT 10SM FEW033 SCT050 SCT060 01/M06 A2998 RMK AO2 SLP153
                 T00061061 =
2019-01-16 19:51 METAR KPWM 170051Z 19005KT 10SM FEW075 01/M06 A2994 RMK AO2 SLP139 T00061056 =
2019-01-16 18:51 METAR KPWM 162351Z 20008KT 10SM BKN070 01/M06 A2991 RMK AO2 SLP131 T00111056
                 10028 20011 53022 =
2019-01-16 17:51 METAR KPWM 162251Z 19009KT 10SM BKN075 02/M06 A2988 RMK AO2 SLP119 T00221061 =
2019-01-16 16:51 METAR KPWM 162151Z 25006KT 10SM BKN070 03/M06 A2986 RMK AO2 SLP112 T00281061 =
2019-01-16 15:51 METAR KPWM 162051Z 24007KT 10SM SCT050 03/M06 A2985 RMK AO2 SLP109 T00281061
                 53005 =
2019-01-16 14:51 METAR KPWM 161951Z 25007G18KT 10SM SCT040 03/M06 A2984 RMK AO2 SLP104 T00281061
                 =
2019-01-16 13:51 METAR KPWM 161851Z 26010G22KT 190V290 10SM FEW039 SCT040 02/M06 A2984 RMK AO2 PK
                 WND 28026/1833 SLP105 T00221056 =
2019-01-16 12:51 METAR KPWM 161751Z 24009G14KT 10SM FEW039 SCT040 02/M06 A2983 RMK AO2 SLP103
                 T00171056 10017 21050 56025 =
2019-01-16 11:51 METAR KPWM 161651Z 22011G19KT 190V250 10SM BKN041 01/M06 A2985 RMK AO2 SLP108
                 T00111061 =
2019-01-16 10:51 METAR KPWM 161551Z 21012G18KT 10SM SCT044 00/M06 A2988 RMK AO2 SLP120 T00001061
                 =
2019-01-16 09:51 METAR KPWM 161451Z 20010KT 10SM BKN044 M01/M07 A2991 RMK AO2 SLP129 T10111067
                 57017 =
2019-01-16 08:51 METAR KPWM 161351Z 20005KT 10SM FEW035 OVC047 M02/M06 A2992 RMK AO2 SLP134
                 T10221056 =
2019-01-16 07:51 METAR KPWM 161251Z 21006KT 10SM OVC039 M04/M07 A2994 RMK AO2 SLP139 T10391067 =
2019-01-16 06:51 METAR KPWM 161151Z 18009KT 10SM FEW040 FEW250 M05/M08 A2996 RMK AO2 SLP145
                 T10501078 11028 21056 56006 =

Support USWX by starting your Amazon purchase here.